sensor_id;sensor_type;location;lat;lon;timestamp;P1;durP1;ratioP1;P2;durP2;ratioP2
22024;SDS011;11176;51.448;6.650;2023-04-03T00:00:44;17.95;;;12.85;;
22024;SDS011;11176;51.448;6.650;2023-04-03T00:03:10;17.45;;;12.57;;
22024;SDS011;11176;51.448;6.650;2023-04-03T00:05:37;20.95;;;13.50;;
22024;SDS011;11176;51.448;6.650;2023-04-03T00:08:03;17.95;;;13.05;;
22024;SDS011;11176;51.448;6.650;2023-04-03T00:10:33;18.67;;;13.35;;
22024;SDS011;11176;51.448;6.650;2023-04-03T00:13:01;18.45;;;13.60;;
22024;SDS011;11176;51.448;6.650;2023-04-03T00:15:28;19.30;;;14.00;;
22024;SDS011;11176;51.448;6.650;2023-04-03T00:17:54;20.30;;;14.45;;
22024;SDS011;11176;51.448;6.650;2023-04-03T00:20:21;22.10;;;14.60;;
22024;SDS011;11176;51.448;6.650;2023-04-03T00:22:49;19.77;;;13.48;;
22024;SDS011;11176;51.448;6.650;2023-04-03T00:25:16;20.02;;;14.20;;
22024;SDS011;11176;51.448;6.650;2023-04-03T00:27:42;19.50;;;13.75;;
22024;SDS011;11176;51.448;6.650;2023-04-03T00:30:10;18.88;;;13.52;;
22024;SDS011;11176;51.448;6.650;2023-04-03T00:32:38;17.90;;;13.07;;
22024;SDS011;11176;51.448;6.650;2023-04-03T00:35:05;20.02;;;13.23;;
22024;SDS011;11176;51.448;6.650;2023-04-03T00:37:32;22.83;;;13.50;;
22024;SDS011;11176;51.448;6.650;2023-04-03T00:40:00;18.65;;;12.90;;
22024;SDS011;11176;51.448;6.650;2023-04-03T00:42:26;17.30;;;12.82;;
22024;SDS011;11176;51.448;6.650;2023-04-03T00:47:23;20.45;;;14.13;;
22024;SDS011;11176;51.448;6.650;2023-04-03T00:49:50;23.33;;;14.90;;
22024;SDS011;11176;51.448;6.650;2023-04-03T00:52:19;26.58;;;14.63;;
22024;SDS011;11176;51.448;6.650;2023-04-03T00:54:50;22.88;;;14.95;;
22024;SDS011;11176;51.448;6.650;2023-04-03T00:57:21;25.30;;;15.00;;
22024;SDS011;11176;51.448;6.650;2023-04-03T00:59:49;19.52;;;15.10;;
22024;SDS011;11176;51.448;6.650;2023-04-03T01:02:21;18.98;;;13.43;;
22024;SDS011;11176;51.448;6.650;2023-04-03T01:04:48;20.45;;;13.80;;
22024;SDS011;11176;51.448;6.650;2023-04-03T01:07:20;22.60;;;13.85;;
22024;SDS011;11176;51.448;6.650;2023-04-03T01:09:51;22.52;;;13.45;;
22024;SDS011;11176;51.448;6.650;2023-04-03T01:12:23;19.33;;;13.48;;
22024;SDS011;11176;51.448;6.650;2023-04-03T01:14:57;16.45;;;12.23;;
22024;SDS011;11176;51.448;6.650;2023-04-03T01:22:43;16.85;;;12.10;;
22024;SDS011;11176;51.448;6.650;2023-04-03T01:25:12;18.20;;;11.65;;
22024;SDS011;11176;51.448;6.650;2023-04-03T01:27:38;18.23;;;12.85;;
22024;SDS011;11176;51.448;6.650;2023-04-03T01:30:05;17.15;;;11.10;;
22024;SDS011;11176;51.448;6.650;2023-04-03T01:32:33;14.85;;;11.05;;
22024;SDS011;11176;51.448;6.650;2023-04-03T01:34:59;21.90;;;11.18;;
22024;SDS011;11176;51.448;6.650;2023-04-03T01:37:26;14.45;;;11.07;;
22024;SDS011;11176;51.448;6.650;2023-04-03T01:39:52;19.02;;;9.70;;
22024;SDS011;11176;51.448;6.650;2023-04-03T01:42:19;14.88;;;9.18;;
22024;SDS011;11176;51.448;6.650;2023-04-03T01:44:46;12.80;;;8.48;;
22024;SDS011;11176;51.448;6.650;2023-04-03T01:47:12;11.70;;;7.88;;
22024;SDS011;11176;51.448;6.650;2023-04-03T01:49:39;12.93;;;8.07;;
22024;SDS011;11176;51.448;6.650;2023-04-03T01:52:06;12.32;;;7.43;;
22024;SDS011;11176;51.448;6.650;2023-04-03T01:54:32;11.35;;;7.22;;
22024;SDS011;11176;51.448;6.650;2023-04-03T01:56:59;11.18;;;6.90;;
22024;SDS011;11176;51.448;6.650;2023-04-03T01:59:26;14.10;;;6.78;;
22024;SDS011;11176;51.448;6.650;2023-04-03T02:01:52;8.23;;;5.68;;
22024;SDS011;11176;51.448;6.650;2023-04-03T02:04:19;8.95;;;5.53;;
22024;SDS011;11176;51.448;6.650;2023-04-03T02:06:45;9.10;;;5.78;;
22024;SDS011;11176;51.448;6.650;2023-04-03T02:09:12;8.48;;;5.50;;
22024;SDS011;11176;51.448;6.650;2023-04-03T02:11:38;7.65;;;4.88;;
22024;SDS011;11176;51.448;6.650;2023-04-03T02:14:05;10.05;;;5.45;;
22024;SDS011;11176;51.448;6.650;2023-04-03T02:16:32;8.18;;;4.80;;
22024;SDS011;11176;51.448;6.650;2023-04-03T02:18:59;8.85;;;4.72;;
22024;SDS011;11176;51.448;6.650;2023-04-03T02:21:25;8.00;;;4.30;;
22024;SDS011;11176;51.448;6.650;2023-04-03T02:23:52;8.48;;;4.70;;
22024;SDS011;11176;51.448;6.650;2023-04-03T02:26:19;7.63;;;4.28;;
22024;SDS011;11176;51.448;6.650;2023-04-03T02:28:46;8.63;;;4.22;;
22024;SDS011;11176;51.448;6.650;2023-04-03T02:31:13;7.38;;;3.65;;
22024;SDS011;11176;51.448;6.650;2023-04-03T02:33:42;8.07;;;3.88;;
22024;SDS011;11176;51.448;6.650;2023-04-03T02:36:10;7.57;;;4.00;;
22024;SDS011;11176;51.448;6.650;2023-04-03T02:38:40;5.82;;;3.63;;
22024;SDS011;11176;51.448;6.650;2023-04-03T02:41:09;7.63;;;3.85;;
22024;SDS011;11176;51.448;6.650;2023-04-03T02:43:37;7.97;;;3.83;;
22024;SDS011;11176;51.448;6.650;2023-04-03T02:46:05;7.47;;;3.65;;
22024;SDS011;11176;51.448;6.650;2023-04-03T02:48:31;6.30;;;3.60;;
22024;SDS011;11176;51.448;6.650;2023-04-03T02:50:58;7.95;;;3.75;;
22024;SDS011;11176;51.448;6.650;2023-04-03T02:53:25;6.40;;;3.40;;
22024;SDS011;11176;51.448;6.650;2023-04-03T02:55:51;5.60;;;3.20;;
22024;SDS011;11176;51.448;6.650;2023-04-03T02:58:18;7.97;;;3.58;;
22024;SDS011;11176;51.448;6.650;2023-04-03T03:00:44;5.65;;;3.05;;
22024;SDS011;11176;51.448;6.650;2023-04-03T03:03:11;7.25;;;3.70;;
22024;SDS011;11176;51.448;6.650;2023-04-03T03:05:39;6.70;;;3.50;;
22024;SDS011;11176;51.448;6.650;2023-04-03T03:08:06;6.70;;;3.50;;
22024;SDS011;11176;51.448;6.650;2023-04-03T03:10:32;6.65;;;3.58;;
22024;SDS011;11176;51.448;6.650;2023-04-03T03:12:58;9.35;;;3.33;;
22024;SDS011;11176;51.448;6.650;2023-04-03T03:15:25;5.65;;;3.05;;
22024;SDS011;11176;51.448;6.650;2023-04-03T03:17:52;8.07;;;3.30;;
22024;SDS011;11176;51.448;6.650;2023-04-03T03:20:19;7.32;;;2.83;;
22024;SDS011;11176;51.448;6.650;2023-04-03T03:22:45;9.40;;;3.58;;
22024;SDS011;11176;51.448;6.650;2023-04-03T03:25:11;6.68;;;2.85;;
22024;SDS011;11176;51.448;6.650;2023-04-03T03:27:38;8.13;;;3.17;;
22024;SDS011;11176;51.448;6.650;2023-04-03T03:30:05;6.88;;;3.00;;
22024;SDS011;11176;51.448;6.650;2023-04-03T03:32:33;6.97;;;3.25;;
22024;SDS011;11176;51.448;6.650;2023-04-03T03:35:00;5.97;;;2.58;;
22024;SDS011;11176;51.448;6.650;2023-04-03T03:37:27;4.88;;;2.30;;
22024;SDS011;11176;51.448;6.650;2023-04-03T03:39:53;7.35;;;2.80;;
22024;SDS011;11176;51.448;6.650;2023-04-03T03:42:20;9.70;;;2.78;;
22024;SDS011;11176;51.448;6.650;2023-04-03T03:44:48;9.82;;;2.80;;
22024;SDS011;11176;51.448;6.650;2023-04-03T03:47:14;7.70;;;2.80;;
22024;SDS011;11176;51.448;6.650;2023-04-03T03:49:41;7.45;;;2.70;;
22024;SDS011;11176;51.448;6.650;2023-04-03T03:52:08;7.35;;;2.85;;
22024;SDS011;11176;51.448;6.650;2023-04-03T03:54:37;7.88;;;2.75;;
22024;SDS011;11176;51.448;6.650;2023-04-03T03:57:04;5.68;;;2.60;;
22024;SDS011;11176;51.448;6.650;2023-04-03T03:59:30;6.72;;;2.75;;
22024;SDS011;11176;51.448;6.650;2023-04-03T04:01:57;7.20;;;2.53;;
22024;SDS011;11176;51.448;6.650;2023-04-03T04:04:24;8.43;;;2.72;;
22024;SDS011;11176;51.448;6.650;2023-04-03T04:06:51;6.30;;;2.50;;
22024;SDS011;11176;51.448;6.650;2023-04-03T04:09:17;8.23;;;2.80;;
22024;SDS011;11176;51.448;6.650;2023-04-03T04:11:44;6.25;;;2.85;;
22024;SDS011;11176;51.448;6.650;2023-04-03T04:14:12;10.25;;;2.90;;
22024;SDS011;11176;51.448;6.650;2023-04-03T04:16:41;10.55;;;2.70;;
22024;SDS011;11176;51.448;6.650;2023-04-03T04:19:13;8.77;;;3.13;;
22024;SDS011;11176;51.448;6.650;2023-04-03T04:21:42;8.38;;;3.05;;
22024;SDS011;11176;51.448;6.650;2023-04-03T04:24:09;10.35;;;3.03;;
22024;SDS011;11176;51.448;6.650;2023-04-03T04:26:37;7.97;;;2.80;;
22024;SDS011;11176;51.448;6.650;2023-04-03T04:29:04;10.68;;;2.80;;
22024;SDS011;11176;51.448;6.650;2023-04-03T04:31:33;8.80;;;2.65;;
22024;SDS011;11176;51.448;6.650;2023-04-03T04:34:00;6.53;;;2.58;;
22024;SDS011;11176;51.448;6.650;2023-04-03T04:36:26;6.25;;;2.88;;
22024;SDS011;11176;51.448;6.650;2023-04-03T04:38:53;6.50;;;2.70;;
22024;SDS011;11176;51.448;6.650;2023-04-03T04:41:22;7.75;;;2.70;;
22024;SDS011;11176;51.448;6.650;2023-04-03T04:43:50;7.25;;;2.65;;
22024;SDS011;11176;51.448;6.650;2023-04-03T04:46:17;9.90;;;2.72;;
22024;SDS011;11176;51.448;6.650;2023-04-03T04:48:49;9.10;;;2.80;;
22024;SDS011;11176;51.448;6.650;2023-04-03T04:51:18;7.38;;;2.70;;
22024;SDS011;11176;51.448;6.650;2023-04-03T04:53:45;8.63;;;2.55;;
22024;SDS011;11176;51.448;6.650;2023-04-03T04:56:14;6.18;;;2.60;;
22024;SDS011;11176;51.448;6.650;2023-04-03T04:58:41;8.02;;;3.20;;
22024;SDS011;11176;51.448;6.650;2023-04-03T05:01:09;9.18;;;2.90;;
22024;SDS011;11176;51.448;6.650;2023-04-03T05:03:46;7.88;;;3.08;;
22024;SDS011;11176;51.448;6.650;2023-04-03T05:06:15;8.63;;;3.08;;
22024;SDS011;11176;51.448;6.650;2023-04-03T05:08:41;7.20;;;3.05;;
22024;SDS011;11176;51.448;6.650;2023-04-03T05:11:08;7.90;;;2.97;;
22024;SDS011;11176;51.448;6.650;2023-04-03T05:13:34;7.60;;;2.78;;
22024;SDS011;11176;51.448;6.650;2023-04-03T05:16:01;8.18;;;3.38;;
22024;SDS011;11176;51.448;6.650;2023-04-03T05:18:27;10.60;;;3.17;;
22024;SDS011;11176;51.448;6.650;2023-04-03T05:20:57;7.65;;;2.90;;
22024;SDS011;11176;51.448;6.650;2023-04-03T05:23:26;6.88;;;3.00;;
22024;SDS011;11176;51.448;6.650;2023-04-03T05:25:53;9.00;;;3.08;;
22024;SDS011;11176;51.448;6.650;2023-04-03T05:28:21;12.60;;;3.45;;
22024;SDS011;11176;51.448;6.650;2023-04-03T05:30:54;5.60;;;2.60;;
22024;SDS011;11176;51.448;6.650;2023-04-03T05:33:24;8.43;;;3.22;;
22024;SDS011;11176;51.448;6.650;2023-04-03T05:35:53;9.20;;;3.20;;
22024;SDS011;11176;51.448;6.650;2023-04-03T05:38:25;10.75;;;2.92;;
22024;SDS011;11176;51.448;6.650;2023-04-03T05:40:53;8.52;;;2.90;;
22024;SDS011;11176;51.448;6.650;2023-04-03T05:43:20;6.78;;;2.90;;
22024;SDS011;11176;51.448;6.650;2023-04-03T05:45:48;8.82;;;3.08;;
22024;SDS011;11176;51.448;6.650;2023-04-03T05:48:15;9.70;;;3.42;;
22024;SDS011;11176;51.448;6.650;2023-04-03T05:50:42;6.55;;;2.90;;
22024;SDS011;11176;51.448;6.650;2023-04-03T05:53:15;9.43;;;3.15;;
22024;SDS011;11176;51.448;6.650;2023-04-03T05:55:47;9.48;;;2.90;;
22024;SDS011;11176;51.448;6.650;2023-04-03T05:58:14;8.00;;;3.25;;
22024;SDS011;11176;51.448;6.650;2023-04-03T06:00:42;9.45;;;3.38;;
22024;SDS011;11176;51.448;6.650;2023-04-03T06:03:08;9.52;;;2.95;;
22024;SDS011;11176;51.448;6.650;2023-04-03T06:05:35;10.63;;;3.38;;
22024;SDS011;11176;51.448;6.650;2023-04-03T06:08:02;7.78;;;3.20;;
22024;SDS011;11176;51.448;6.650;2023-04-03T06:10:30;6.38;;;3.03;;
22024;SDS011;11176;51.448;6.650;2023-04-03T06:12:56;8.20;;;3.30;;
22024;SDS011;11176;51.448;6.650;2023-04-03T06:15:23;11.85;;;3.50;;
22024;SDS011;11176;51.448;6.650;2023-04-03T06:17:50;8.07;;;3.28;;
22024;SDS011;11176;51.448;6.650;2023-04-03T06:20:16;8.82;;;3.45;;
22024;SDS011;11176;51.448;6.650;2023-04-03T06:22:43;8.15;;;2.60;;
22024;SDS011;11176;51.448;6.650;2023-04-03T06:25:10;9.70;;;3.30;;
22024;SDS011;11176;51.448;6.650;2023-04-03T06:27:38;9.43;;;2.90;;
22024;SDS011;11176;51.448;6.650;2023-04-03T06:30:05;10.70;;;3.40;;
22024;SDS011;11176;51.448;6.650;2023-04-03T06:32:32;10.27;;;2.88;;
22024;SDS011;11176;51.448;6.650;2023-04-03T06:34:59;6.95;;;2.80;;
22024;SDS011;11176;51.448;6.650;2023-04-03T06:37:26;8.82;;;3.00;;
22024;SDS011;11176;51.448;6.650;2023-04-03T06:39:54;9.27;;;2.97;;
22024;SDS011;11176;51.448;6.650;2023-04-03T06:42:21;9.55;;;3.08;;
22024;SDS011;11176;51.448;6.650;2023-04-03T06:44:58;9.43;;;3.60;;
22024;SDS011;11176;51.448;6.650;2023-04-03T06:47:25;9.32;;;3.75;;
22024;SDS011;11176;51.448;6.650;2023-04-03T06:49:51;11.95;;;3.80;;
22024;SDS011;11176;51.448;6.650;2023-04-03T06:52:17;6.97;;;3.35;;
22024;SDS011;11176;51.448;6.650;2023-04-03T06:54:44;8.15;;;2.95;;
22024;SDS011;11176;51.448;6.650;2023-04-03T06:57:10;8.65;;;3.60;;
22024;SDS011;11176;51.448;6.650;2023-04-03T06:59:37;10.55;;;3.40;;
22024;SDS011;11176;51.448;6.650;2023-04-03T07:02:04;7.35;;;3.25;;
22024;SDS011;11176;51.448;6.650;2023-04-03T07:04:30;8.45;;;3.63;;
22024;SDS011;11176;51.448;6.650;2023-04-03T07:06:57;8.55;;;3.92;;
22024;SDS011;11176;51.448;6.650;2023-04-03T07:09:24;8.68;;;3.30;;
22024;SDS011;11176;51.448;6.650;2023-04-03T07:11:50;9.55;;;3.40;;
22024;SDS011;11176;51.448;6.650;2023-04-03T07:14:18;9.88;;;2.80;;
22024;SDS011;11176;51.448;6.650;2023-04-03T07:16:44;10.18;;;3.17;;
22024;SDS011;11176;51.448;6.650;2023-04-03T07:19:11;8.00;;;3.42;;
22024;SDS011;11176;51.448;6.650;2023-04-03T07:21:37;7.22;;;3.15;;
22024;SDS011;11176;51.448;6.650;2023-04-03T07:24:04;9.57;;;3.28;;
22024;SDS011;11176;51.448;6.650;2023-04-03T07:26:31;11.40;;;3.38;;
22024;SDS011;11176;51.448;6.650;2023-04-03T07:28:57;9.65;;;3.30;;
22024;SDS011;11176;51.448;6.650;2023-04-03T07:31:24;9.30;;;3.47;;
22024;SDS011;11176;51.448;6.650;2023-04-03T07:33:51;9.43;;;3.92;;
22024;SDS011;11176;51.448;6.650;2023-04-03T07:36:19;10.15;;;3.13;;
22024;SDS011;11176;51.448;6.650;2023-04-03T07:38:47;8.32;;;3.10;;
22024;SDS011;11176;51.448;6.650;2023-04-03T07:41:14;9.65;;;3.05;;
22024;SDS011;11176;51.448;6.650;2023-04-03T07:43:44;5.85;;;2.65;;
22024;SDS011;11176;51.448;6.650;2023-04-03T07:46:11;7.68;;;2.80;;
22024;SDS011;11176;51.448;6.650;2023-04-03T07:48:38;7.95;;;2.80;;
22024;SDS011;11176;51.448;6.650;2023-04-03T07:51:05;11.65;;;3.38;;
22024;SDS011;11176;51.448;6.650;2023-04-03T07:53:32;9.43;;;2.85;;
22024;SDS011;11176;51.448;6.650;2023-04-03T07:55:59;7.45;;;3.13;;
22024;SDS011;11176;51.448;6.650;2023-04-03T07:58:26;10.45;;;3.08;;
22024;SDS011;11176;51.448;6.650;2023-04-03T08:00:53;9.63;;;3.50;;
22024;SDS011;11176;51.448;6.650;2023-04-03T08:03:19;11.25;;;3.33;;
22024;SDS011;11176;51.448;6.650;2023-04-03T08:05:47;8.15;;;2.80;;
22024;SDS011;11176;51.448;6.650;2023-04-03T08:08:16;7.80;;;3.08;;
22024;SDS011;11176;51.448;6.650;2023-04-03T08:10:52;10.73;;;3.20;;
22024;SDS011;11176;51.448;6.650;2023-04-03T08:13:20;9.18;;;2.95;;
22024;SDS011;11176;51.448;6.650;2023-04-03T08:15:47;6.85;;;2.90;;
22024;SDS011;11176;51.448;6.650;2023-04-03T08:18:14;6.97;;;2.45;;
22024;SDS011;11176;51.448;6.650;2023-04-03T08:20:42;8.38;;;2.40;;
22024;SDS011;11176;51.448;6.650;2023-04-03T08:23:09;4.78;;;2.47;;
22024;SDS011;11176;51.448;6.650;2023-04-03T08:25:39;6.40;;;2.35;;
22024;SDS011;11176;51.448;6.650;2023-04-03T08:28:08;8.75;;;2.40;;
22024;SDS011;11176;51.448;6.650;2023-04-03T08:30:35;6.18;;;2.58;;
22024;SDS011;11176;51.448;6.650;2023-04-03T08:33:02;6.30;;;2.13;;
22024;SDS011;11176;51.448;6.650;2023-04-03T08:35:29;7.50;;;2.03;;
22024;SDS011;11176;51.448;6.650;2023-04-03T08:37:56;6.40;;;2.38;;
22024;SDS011;11176;51.448;6.650;2023-04-03T08:40:23;7.32;;;2.28;;
22024;SDS011;11176;51.448;6.650;2023-04-03T08:45:27;6.47;;;1.95;;
22024;SDS011;11176;51.448;6.650;2023-04-03T08:48:27;5.97;;;1.98;;
22024;SDS011;11176;51.448;6.650;2023-04-03T08:51:00;3.92;;;1.65;;
22024;SDS011;11176;51.448;6.650;2023-04-03T08:53:37;5.03;;;1.85;;
22024;SDS011;11176;51.448;6.650;2023-04-03T08:56:08;5.85;;;1.55;;
22024;SDS011;11176;51.448;6.650;2023-04-03T08:58:58;4.85;;;1.95;;
22024;SDS011;11176;51.448;6.650;2023-04-03T09:01:37;5.13;;;1.70;;
22024;SDS011;11176;51.448;6.650;2023-04-03T09:04:13;5.53;;;2.05;;
22024;SDS011;11176;51.448;6.650;2023-04-03T09:06:45;5.30;;;1.92;;
22024;SDS011;11176;51.448;6.650;2023-04-03T09:09:38;4.53;;;1.48;;
22024;SDS011;11176;51.448;6.650;2023-04-03T09:12:32;5.22;;;1.58;;
22024;SDS011;11176;51.448;6.650;2023-04-03T09:15:23;4.72;;;1.38;;
22024;SDS011;11176;51.448;6.650;2023-04-03T09:18:11;3.88;;;1.48;;
22024;SDS011;11176;51.448;6.650;2023-04-03T09:20:45;4.10;;;1.63;;
22024;SDS011;11176;51.448;6.650;2023-04-03T09:26:29;4.35;;;1.45;;
22024;SDS011;11176;51.448;6.650;2023-04-03T09:29:02;3.13;;;1.30;;
22024;SDS011;11176;51.448;6.650;2023-04-03T09:31:40;4.25;;;1.77;;
22024;SDS011;11176;51.448;6.650;2023-04-03T09:36:53;4.32;;;1.30;;
22024;SDS011;11176;51.448;6.650;2023-04-03T09:39:22;3.65;;;1.20;;
22024;SDS011;11176;51.448;6.650;2023-04-03T09:42:03;4.63;;;1.20;;
22024;SDS011;11176;51.448;6.650;2023-04-03T09:44:53;5.47;;;1.50;;
22024;SDS011;11176;51.448;6.650;2023-04-03T09:52:40;4.43;;;1.30;;
22024;SDS011;11176;51.448;6.650;2023-04-03T09:55:19;4.90;;;1.40;;
22024;SDS011;11176;51.448;6.650;2023-04-03T09:57:54;6.70;;;1.23;;
22024;SDS011;11176;51.448;6.650;2023-04-03T10:00:23;6.40;;;1.40;;
22024;SDS011;11176;51.448;6.650;2023-04-03T10:02:56;3.97;;;1.30;;
22024;SDS011;11176;51.448;6.650;2023-04-03T10:08:07;2.78;;;1.00;;
22024;SDS011;11176;51.448;6.650;2023-04-03T10:10:46;5.75;;;1.17;;
22024;SDS011;11176;51.448;6.650;2023-04-03T10:13:16;4.85;;;1.17;;
22024;SDS011;11176;51.448;6.650;2023-04-03T10:15:58;4.30;;;1.00;;
22024;SDS011;11176;51.448;6.650;2023-04-03T10:21:28;10.52;;;3.55;;
22024;SDS011;11176;51.448;6.650;2023-04-03T10:24:09;18.48;;;4.32;;
22024;SDS011;11176;51.448;6.650;2023-04-03T10:32:48;6.72;;;2.05;;
22024;SDS011;11176;51.448;6.650;2023-04-03T10:35:30;9.38;;;3.05;;
22024;SDS011;11176;51.448;6.650;2023-04-03T10:44:08;1.40;;;0.73;;
22024;SDS011;11176;51.448;6.650;2023-04-03T10:46:38;2.25;;;0.80;;
22024;SDS011;11176;51.448;6.650;2023-04-03T10:49:25;1.92;;;0.80;;
22024;SDS011;11176;51.448;6.650;2023-04-03T10:52:03;2.65;;;0.90;;
22024;SDS011;11176;51.448;6.650;2023-04-03T10:54:40;2.63;;;1.02;;
22024;SDS011;11176;51.448;6.650;2023-04-03T10:57:09;2.40;;;0.82;;
22024;SDS011;11176;51.448;6.650;2023-04-03T11:02:27;2.78;;;0.98;;
22024;SDS011;11176;51.448;6.650;2023-04-03T11:05:02;4.72;;;1.02;;
22024;SDS011;11176;51.448;6.650;2023-04-03T11:07:37;3.92;;;0.95;;
22024;SDS011;11176;51.448;6.650;2023-04-03T11:10:11;3.90;;;1.17;;
22024;SDS011;11176;51.448;6.650;2023-04-03T11:12:49;3.05;;;1.15;;
22024;SDS011;11176;51.448;6.650;2023-04-03T11:15:20;3.08;;;1.13;;
22024;SDS011;11176;51.448;6.650;2023-04-03T11:17:52;3.85;;;1.10;;
22024;SDS011;11176;51.448;6.650;2023-04-03T11:20:31;5.05;;;1.00;;
22024;SDS011;11176;51.448;6.650;2023-04-03T11:23:00;2.65;;;1.10;;
22024;SDS011;11176;51.448;6.650;2023-04-03T11:25:53;2.75;;;1.10;;
22024;SDS011;11176;51.448;6.650;2023-04-03T11:28:22;2.42;;;0.95;;
22024;SDS011;11176;51.448;6.650;2023-04-03T11:31:11;5.15;;;1.30;;
22024;SDS011;11176;51.448;6.650;2023-04-03T11:37:05;3.83;;;1.70;;
22024;SDS011;11176;51.448;6.650;2023-04-03T11:39:39;4.35;;;1.60;;
22024;SDS011;11176;51.448;6.650;2023-04-03T11:42:22;3.20;;;1.13;;
22024;SDS011;11176;51.448;6.650;2023-04-03T11:47:54;2.90;;;1.02;;
22024;SDS011;11176;51.448;6.650;2023-04-03T12:05:52;1.65;;;0.80;;
22024;SDS011;11176;51.448;6.650;2023-04-03T12:08:26;4.28;;;1.20;;
22024;SDS011;11176;51.448;6.650;2023-04-03T12:16:21;4.88;;;1.10;;
22024;SDS011;11176;51.448;6.650;2023-04-03T12:21:15;4.18;;;1.45;;
22024;SDS011;11176;51.448;6.650;2023-04-03T12:23:56;3.83;;;1.10;;
22024;SDS011;11176;51.448;6.650;2023-04-03T12:26:28;3.47;;;0.90;;
22024;SDS011;11176;51.448;6.650;2023-04-03T12:34:45;2.92;;;0.98;;
22024;SDS011;11176;51.448;6.650;2023-04-03T12:48:16;2.80;;;0.75;;
22024;SDS011;11176;51.448;6.650;2023-04-03T12:50:47;5.35;;;1.23;;
22024;SDS011;11176;51.448;6.650;2023-04-03T12:53:19;4.43;;;1.05;;
22024;SDS011;11176;51.448;6.650;2023-04-03T12:55:56;4.05;;;1.00;;
22024;SDS011;11176;51.448;6.650;2023-04-03T13:01:10;5.75;;;1.30;;
22024;SDS011;11176;51.448;6.650;2023-04-03T13:03:40;2.30;;;0.82;;
22024;SDS011;11176;51.448;6.650;2023-04-03T13:06:13;2.33;;;0.77;;
22024;SDS011;11176;51.448;6.650;2023-04-03T13:08:48;2.53;;;1.05;;
22024;SDS011;11176;51.448;6.650;2023-04-03T13:11:19;2.58;;;0.90;;
22024;SDS011;11176;51.448;6.650;2023-04-03T13:13:54;3.50;;;1.00;;
22024;SDS011;11176;51.448;6.650;2023-04-03T13:16:22;2.33;;;1.05;;
22024;SDS011;11176;51.448;6.650;2023-04-03T13:18:53;2.75;;;0.90;;
22024;SDS011;11176;51.448;6.650;2023-04-03T13:21:21;2.85;;;1.15;;
22024;SDS011;11176;51.448;6.650;2023-04-03T13:23:52;2.42;;;0.85;;
22024;SDS011;11176;51.448;6.650;2023-04-03T13:26:37;4.35;;;1.20;;
22024;SDS011;11176;51.448;6.650;2023-04-03T13:29:05;2.50;;;0.77;;
22024;SDS011;11176;51.448;6.650;2023-04-03T13:31:55;5.72;;;1.00;;
22024;SDS011;11176;51.448;6.650;2023-04-03T13:34:23;2.70;;;1.20;;
22024;SDS011;11176;51.448;6.650;2023-04-03T13:36:57;3.25;;;0.80;;
22024;SDS011;11176;51.448;6.650;2023-04-03T13:39:29;4.13;;;0.93;;
22024;SDS011;11176;51.448;6.650;2023-04-03T13:41:58;2.92;;;1.20;;
22024;SDS011;11176;51.448;6.650;2023-04-03T13:44:41;5.03;;;1.02;;
22024;SDS011;11176;51.448;6.650;2023-04-03T13:49:38;2.78;;;1.10;;
22024;SDS011;11176;51.448;6.650;2023-04-03T13:54:46;3.63;;;1.00;;
22024;SDS011;11176;51.448;6.650;2023-04-03T13:57:17;2.55;;;0.82;;
22024;SDS011;11176;51.448;6.650;2023-04-03T13:59:44;2.03;;;0.80;;
22024;SDS011;11176;51.448;6.650;2023-04-03T14:02:33;3.53;;;0.93;;
22024;SDS011;11176;51.448;6.650;2023-04-03T14:04:59;2.72;;;0.75;;
22024;SDS011;11176;51.448;6.650;2023-04-03T14:07:29;2.97;;;0.88;;
22024;SDS011;11176;51.448;6.650;2023-04-03T14:09:57;2.97;;;0.77;;
22024;SDS011;11176;51.448;6.650;2023-04-03T14:12:25;1.88;;;0.90;;
22024;SDS011;11176;51.448;6.650;2023-04-03T14:17:24;3.45;;;1.00;;
22024;SDS011;11176;51.448;6.650;2023-04-03T14:19:54;3.38;;;0.95;;
22024;SDS011;11176;51.448;6.650;2023-04-03T14:22:26;5.10;;;0.95;;
22024;SDS011;11176;51.448;6.650;2023-04-03T14:24:55;5.18;;;1.25;;
22024;SDS011;11176;51.448;6.650;2023-04-03T14:27:24;4.13;;;1.33;;
22024;SDS011;11176;51.448;6.650;2023-04-03T14:29:54;3.85;;;1.00;;
22024;SDS011;11176;51.448;6.650;2023-04-03T14:32:22;3.13;;;0.80;;
22024;SDS011;11176;51.448;6.650;2023-04-03T14:34:50;3.22;;;0.98;;
22024;SDS011;11176;51.448;6.650;2023-04-03T14:37:19;3.00;;;1.10;;
22024;SDS011;11176;51.448;6.650;2023-04-03T14:39:49;2.45;;;0.90;;
22024;SDS011;11176;51.448;6.650;2023-04-03T14:42:18;5.43;;;1.40;;
22024;SDS011;11176;51.448;6.650;2023-04-03T14:44:50;5.80;;;0.90;;
22024;SDS011;11176;51.448;6.650;2023-04-03T14:47:21;1.90;;;0.70;;
22024;SDS011;11176;51.448;6.650;2023-04-03T14:50:04;3.03;;;1.10;;
22024;SDS011;11176;51.448;6.650;2023-04-03T14:52:34;3.58;;;1.10;;
22024;SDS011;11176;51.448;6.650;2023-04-03T14:55:03;2.80;;;0.98;;
22024;SDS011;11176;51.448;6.650;2023-04-03T14:57:32;4.78;;;1.20;;
22024;SDS011;11176;51.448;6.650;2023-04-03T14:59:59;5.45;;;1.10;;
22024;SDS011;11176;51.448;6.650;2023-04-03T15:02:32;4.60;;;1.10;;
22024;SDS011;11176;51.448;6.650;2023-04-03T15:05:02;4.18;;;0.93;;
22024;SDS011;11176;51.448;6.650;2023-04-03T15:07:32;3.33;;;0.90;;
22024;SDS011;11176;51.448;6.650;2023-04-03T15:12:49;2.70;;;0.90;;
22024;SDS011;11176;51.448;6.650;2023-04-03T15:15:17;3.08;;;1.00;;
22024;SDS011;11176;51.448;6.650;2023-04-03T15:17:46;4.25;;;1.05;;
22024;SDS011;11176;51.448;6.650;2023-04-03T15:20:17;3.38;;;1.23;;
22024;SDS011;11176;51.448;6.650;2023-04-03T15:22:45;3.08;;;1.13;;
22024;SDS011;11176;51.448;6.650;2023-04-03T15:25:12;3.88;;;1.30;;
22024;SDS011;11176;51.448;6.650;2023-04-03T15:27:38;3.38;;;1.08;;
22024;SDS011;11176;51.448;6.650;2023-04-03T15:30:08;5.00;;;1.17;;
22024;SDS011;11176;51.448;6.650;2023-04-03T15:32:39;2.33;;;0.90;;
22024;SDS011;11176;51.448;6.650;2023-04-03T15:35:05;3.55;;;1.00;;
22024;SDS011;11176;51.448;6.650;2023-04-03T15:37:32;5.07;;;1.40;;
22024;SDS011;11176;51.448;6.650;2023-04-03T15:39:59;3.83;;;1.30;;
22024;SDS011;11176;51.448;6.650;2023-04-03T15:42:25;2.90;;;1.10;;
22024;SDS011;11176;51.448;6.650;2023-04-03T15:44:52;1.52;;;0.73;;
22024;SDS011;11176;51.448;6.650;2023-04-03T15:47:18;3.45;;;1.00;;
22024;SDS011;11176;51.448;6.650;2023-04-03T15:49:45;8.52;;;1.48;;
22024;SDS011;11176;51.448;6.650;2023-04-03T15:52:12;2.75;;;0.80;;
22024;SDS011;11176;51.448;6.650;2023-04-03T15:54:39;3.38;;;1.10;;
22024;SDS011;11176;51.448;6.650;2023-04-03T15:57:05;4.82;;;1.40;;
22024;SDS011;11176;51.448;6.650;2023-04-03T15:59:32;4.60;;;1.23;;
22024;SDS011;11176;51.448;6.650;2023-04-03T16:01:58;4.00;;;1.20;;
22024;SDS011;11176;51.448;6.650;2023-04-03T16:04:27;7.00;;;1.25;;
22024;SDS011;11176;51.448;6.650;2023-04-03T16:06:54;2.75;;;1.05;;
22024;SDS011;11176;51.448;6.650;2023-04-03T16:09:20;5.75;;;1.52;;
22024;SDS011;11176;51.448;6.650;2023-04-03T16:11:46;3.38;;;1.00;;
22024;SDS011;11176;51.448;6.650;2023-04-03T16:14:13;5.65;;;1.40;;
22024;SDS011;11176;51.448;6.650;2023-04-03T16:16:40;4.10;;;1.60;;
22024;SDS011;11176;51.448;6.650;2023-04-03T16:19:06;3.08;;;0.93;;
22024;SDS011;11176;51.448;6.650;2023-04-03T16:21:33;3.50;;;1.23;;
22024;SDS011;11176;51.448;6.650;2023-04-03T16:24:00;3.92;;;1.25;;
22024;SDS011;11176;51.448;6.650;2023-04-03T16:26:27;4.13;;;1.80;;
22024;SDS011;11176;51.448;6.650;2023-04-03T16:28:54;4.25;;;1.45;;
22024;SDS011;11176;51.448;6.650;2023-04-03T16:31:20;4.68;;;1.52;;
22024;SDS011;11176;51.448;6.650;2023-04-03T16:33:48;3.78;;;1.50;;
22024;SDS011;11176;51.448;6.650;2023-04-03T16:36:15;5.45;;;1.70;;
22024;SDS011;11176;51.448;6.650;2023-04-03T16:38:42;4.72;;;1.67;;